Henry Sause — WTW9259 — position and weather

sailwx.info

Track history (hours):
 
Tides and Currents Weather Stations Pressure Air Temp Water Temp Dewpoint Dewpoint Depression Visibility Wind Speed Wind Dir Waves Ship Positions

Henry Sause

Owner: Sause Bros. Inc., COOS BAY, OR. More information available from US FCC via Universal Licensing System and Coast Guard Vessel Documentation Center.

Last reported at 2018-Jun-08 08:19 UTC. Time now 2018-Jun-24 20:27 UTC.
Position N 44°18' W 124°51'.
Warning: this ship's position is 16 days out of date.

Type: Tow > 200 m length. MMSI: 367007870.

Date/timePositionNaut miles runAvg speedWind from/ knotsBaromVisibWave heightAir tempDewpointWater temp
2018-Jun-08 08:19N 44°18' W 124°51'69 7.4
2018-Jun-07 22:53N 45°26' W 124°31'4 7.4
2018-Jun-07 22:19N 45°30' W 124°31'2 7.4
2018-Jun-07 22:00N 45°32' W 124°31'4 7.7
2018-Jun-07 21:30N 45°36' W 124°30'4 7.8
2018-Jun-07 21:00N 45°40' W 124°29'4 8.0
2018-Jun-07 20:30N 45°44' W 124°28'4 8.3
2018-Jun-07 20:00N 45°48' W 124°28'7 8.4
2018-Jun-07 19:11N 45°55' W 124°26'1 8.2
2018-Jun-07 19:01N 45°56' W 124°26'4 8.5
2018-Jun-07 18:30N 46°00' W 124°25'4 8.0
2018-Jun-07 18:00N 46°04' W 124°23'4 7.3
2018-Jun-07 17:30N 46°07' W 124°19'7 8.8
2018-Jun-07 16:43N 46°11' W 124°12'0 0.0
2018-Jun-07 16:27N 46°11' W 124°12'3 6.3
2018-Jun-07 16:00N 46°13' W 124°08'3 6.4
2018-Jun-07 15:30N 46°15' W 124°05'4 7.2
2018-Jun-07 15:01N 46°15' W 123°60'4 7.9
2018-Jun-07 14:31N 46°12' W 123°56'4 7.5
2018-Jun-07 14:00N 46°12' W 123°50'4 8.1
2018-Jun-07 13:31N 46°13' W 123°45'4 8.2
2018-Jun-07 13:00N 46°15' W 123°40'4 8.8
2018-Jun-07 12:31N 46°15' W 123°33'4 7.9
2018-Jun-07 12:00N 46°16' W 123°28'6 7.9
2018-Jun-07 11:18N 46°11' W 123°25'3 8.5
2018-Jun-07 11:00N 46°09' W 123°23'6 8.2
2018-Jun-07 10:15N 46°10' W 123°14'2 8.9
2018-Jun-07 10:01N 46°11' W 123°11'4 7.9
2018-Jun-07 09:31N 46°10' W 123°05'4 8.7
2018-Jun-07 09:01N 46°08' W 123°00'3 4.4
2018-Jun-07 08:20N 46°06' W 122°57'0 0.4
2018-Jun-07 08:01N 46°06' W 122°57'0 0.0
2018-Jun-07 07:30N 46°06' W 122°57'0 0.0
2018-Jun-07 06:09N 46°06' W 122°57'0 0.0
2018-Jun-07 06:01N 46°06' W 122°57'0 0.0
2018-Jun-07 05:30N 46°06' W 122°57'0 0.0
2018-Jun-07 05:01N 46°06' W 122°57'0 0.0
2018-Jun-07 04:30N 46°06' W 122°57'0 0.0
2018-Jun-07 03:45N 46°06' W 122°57'0 0.0
2018-Jun-07 03:24N 46°06' W 122°57'0 0.0
2018-Jun-07 03:01N 46°06' W 122°57'0 0.0
2018-Jun-07 02:20N 46°06' W 122°57'0 0.0
2018-Jun-07 02:00N 46°06' W 122°57'0 0.0
2018-Jun-07 01:31N 46°06' W 122°57'0 0.0
2018-Jun-07 00:59N 46°06' W 122°57'0 0.0
2018-Jun-07 00:30N 46°06' W 122°57'0 0.0
2018-Jun-07 00:00N 46°06' W 122°57'0 0.0
2018-Jun-06 23:30N 46°06' W 122°57'0 0.0
2018-Jun-06 23:00N 46°06' W 122°57'0 0.0
2018-Jun-06 22:22N 46°06' W 122°57'0 0.0
2018-Jun-06 22:00N 46°06' W 122°57'0 0.0
2018-Jun-06 21:31N 46°06' W 122°57'0 0.0
2018-Jun-06 21:00N 46°06' W 122°57'0 0.0
2018-Jun-06 20:30N 46°06' W 122°57'0 0.0
2018-Jun-06 20:01N 46°06' W 122°57'0 0.0
2018-Jun-06 19:16N 46°06' W 122°57'0 0.0
2018-Jun-06 19:01N 46°06' W 122°57'0 0.0
2018-Jun-06 18:30N 46°06' W 122°57'4 8.4
2018-Jun-06 18:00N 46°03' W 122°53'5 9.6
2018-Jun-06 17:31N 45°59' W 122°50'611.0
2018-Jun-06 17:01N 45°53' W 122°48'510.4
2018-Jun-06 16:30N 45°48' W 122°47'611.3
2018-Jun-06 16:00N 45°42' W 122°46'4 8.7
2018-Jun-06 15:30N 45°38' W 122°47'3 6.8
2018-Jun-06 15:00N 45°35' W 122°46'3 6.0
2018-Jun-06 14:30N 45°33' W 122°42'0 0.1
2018-Jun-06 14:01N 45°33' W 122°42'0 0.0
2018-Jun-06 13:30N 45°33' W 122°42'0 0.0
2018-Jun-06 13:00N 45°33' W 122°42'0 0.0
2018-Jun-06 12:30N 45°33' W 122°42'0 0.0
2018-Jun-06 12:00N 45°33' W 122°42'0 0.1
2018-Jun-06 11:30N 45°33' W 122°42'0 0.1
2018-Jun-06 11:00N 45°33' W 122°42'0 0.0
2018-Jun-06 10:30N 45°33' W 122°42'0 0.1
2018-Jun-06 10:01N 45°33' W 122°42'0 0.1
2018-Jun-06 09:30N 45°33' W 122°42'0 0.1
2018-Jun-06 09:01N 45°33' W 122°42'0 0.1
2018-Jun-06 08:30N 45°33' W 122°42'0 0.0
2018-Jun-06 08:00N 45°33' W 122°42'0 0.0
2018-Jun-06 07:31N 45°33' W 122°42'0 0.0
2018-Jun-06 07:00N 45°33' W 122°42'0 0.1
2018-Jun-06 06:30N 45°33' W 122°42'0 0.0
2018-Jun-06 06:00N 45°33' W 122°42'0 0.1
2018-Jun-06 05:31N 45°33' W 122°42'0 0.0
2018-Jun-06 04:57N 45°33' W 122°42'0 0.1
2018-Jun-06 04:27N 45°33' W 122°42'0 0.1
2018-Jun-06 04:00N 45°33' W 122°42'0 0.0
2018-Jun-06 03:30N 45°33' W 122°42'0 0.0
2018-Jun-06 03:00N 45°33' W 122°42'0 0.1
2018-Jun-06 02:30N 45°33' W 122°42'0 0.0
2018-Jun-06 02:01N 45°33' W 122°42'0 0.1
2018-Jun-06 01:31N 45°33' W 122°42'0 0.1
2018-Jun-06 01:00N 45°33' W 122°42'0 0.1
2018-Jun-06 00:31N 45°33' W 122°42'0 0.0
2018-Jun-06 00:00N 45°33' W 122°42'0 0.0
2018-Jun-05 23:30N 45°33' W 122°42'0 0.1
2018-Jun-05 23:00N 45°33' W 122°42'0 0.1
2018-Jun-05 22:30N 45°33' W 122°42'0 0.0
2018-Jun-05 22:00N 45°33' W 122°42'0 0.0
2018-Jun-05 21:30N 45°33' W 122°42'0 0.1
2018-Jun-05 21:00N 45°33' W 122°42'0 0.1
2018-Jun-05 20:30N 45°33' W 122°42'0 0.0
2018-Jun-05 20:01N 45°33' W 122°42'0 0.0
2018-Jun-05 19:31N 45°33' W 122°42'0 0.1
2018-Jun-05 19:00N 45°33' W 122°42'0 0.1
2018-Jun-05 18:30N 45°33' W 122°42'0 0.0
2018-Jun-05 18:00N 45°33' W 122°42'0 0.1
2018-Jun-05 17:30N 45°33' W 122°42'0 0.1
2018-Jun-05 17:00N 45°33' W 122°42'0 0.1
2018-Jun-05 16:30N 45°33' W 122°42'0 0.1
2018-Jun-05 16:00N 45°33' W 122°42'0 0.0
2018-Jun-05 15:31N 45°33' W 122°42'0 0.1
2018-Jun-05 15:00N 45°33' W 122°42'0 0.0
2018-Jun-05 14:30N 45°33' W 122°42'0 0.1
2018-Jun-05 14:00N 45°33' W 122°42'0 0.0
2018-Jun-05 13:31N 45°33' W 122°42'0 0.0
2018-Jun-05 13:00N 45°33' W 122°42'0 0.0
2018-Jun-05 12:30N 45°33' W 122°42'0 0.1
2018-Jun-05 12:00N 45°33' W 122°42'0 0.0
2018-Jun-05 11:30N 45°33' W 122°42'0 0.1
2018-Jun-05 11:00N 45°33' W 122°42'0 0.0
2018-Jun-05 10:30N 45°33' W 122°42'0 0.1
2018-Jun-05 10:00N 45°33' W 122°42'0 0.0
2018-Jun-05 09:30N 45°33' W 122°42'0 0.1
2018-Jun-05 09:01N 45°33' W 122°42'0 0.0
2018-Jun-05 08:30N 45°33' W 122°42'0 0.0
2018-Jun-05 08:00N 45°33' W 122°42'0 0.0
2018-Jun-05 07:30N 45°33' W 122°42'0 0.0
2018-Jun-05 06:58N 45°33' W 122°42'0 0.0
2018-Jun-05 06:28N 45°33' W 122°42'0 0.0
2018-Jun-05 05:58N 45°33' W 122°42'0 0.0
2018-Jun-05 05:30N 45°33' W 122°42'0 0.0
2018-Jun-05 05:00N 45°33' W 122°42'0 0.1
2018-Jun-05 04:30N 45°33' W 122°42'0 0.0
2018-Jun-05 04:00N 45°33' W 122°42'0 0.0
2018-Jun-05 03:30N 45°33' W 122°42'0 0.0
2018-Jun-05 02:59N 45°33' W 122°42'0 0.1
2018-Jun-05 02:30N 45°33' W 122°42'0 0.1
2018-Jun-05 02:00N 45°33' W 122°42'0 0.1
2018-Jun-05 01:30N 45°33' W 122°42'0 0.0
2018-Jun-05 01:00N 45°33' W 122°42'0 0.0
2018-Jun-05 00:30N 45°33' W 122°42'0 0.1
2018-Jun-05 00:00N 45°33' W 122°42'0 0.1
2018-Jun-04 23:31N 45°33' W 122°42'0 0.1
2018-Jun-04 23:00N 45°33' W 122°42'0 0.1
2018-Jun-04 22:28N 45°33' W 122°42'0 0.0
2018-Jun-04 22:00N 45°33' W 122°42'0 0.1
2018-Jun-04 21:30N 45°33' W 122°42'0 0.1
2018-Jun-04 21:00N 45°33' W 122°42'0 0.1
2018-Jun-04 20:30N 45°33' W 122°42'0 0.0
2018-Jun-04 20:01N 45°33' W 122°42'0 0.1
2018-Jun-04 19:30N 45°33' W 122°42'0 0.1
2018-Jun-04 19:00N 45°33' W 122°42'0 0.1
2018-Jun-04 18:30N 45°33' W 122°42'0 0.1
2018-Jun-04 18:01N 45°33' W 122°42'0 0.0
2018-Jun-04 17:30N 45°33' W 122°42'0 0.1
2018-Jun-04 17:00N 45°33' W 122°42'0 0.0
2018-Jun-04 16:30N 45°33' W 122°42'0 0.0
2018-Jun-04 16:00N 45°33' W 122°42'0 0.1
2018-Jun-04 15:31N 45°33' W 122°42'0 0.1
2018-Jun-04 15:00N 45°33' W 122°42'0 0.0
2018-Jun-04 14:30N 45°33' W 122°42'0 0.0
2018-Jun-04 14:00N 45°33' W 122°42'0 0.0
2018-Jun-04 13:30N 45°33' W 122°42'0 0.0
2018-Jun-04 13:00N 45°33' W 122°42'0 0.0
2018-Jun-04 12:30N 45°33' W 122°42'0 0.0
2018-Jun-04 12:00N 45°33' W 122°42'0 0.0
2018-Jun-04 11:30N 45°33' W 122°42'0 0.0
2018-Jun-04 11:01N 45°33' W 122°42'0 0.1
2018-Jun-04 10:30N 45°33' W 122°42'0 0.0
2018-Jun-04 10:00N 45°33' W 122°42'0 0.1
2018-Jun-04 09:30N 45°33' W 122°42'0 0.1
2018-Jun-04 09:01N 45°33' W 122°42'0 0.1
2018-Jun-04 08:30N 45°33' W 122°42'0 0.1
2018-Jun-04 08:00N 45°33' W 122°42'0 0.0
2018-Jun-04 07:31N 45°33' W 122°42'0 0.1
2018-Jun-04 07:00N 45°33' W 122°42'0 0.1
2018-Jun-04 06:31N 45°33' W 122°42'0 0.1
2018-Jun-04 06:00N 45°33' W 122°42'0 0.0
2018-Jun-04 05:30N 45°33' W 122°42'0 0.1
2018-Jun-04 05:00N 45°33' W 122°42'0 0.1
2018-Jun-04 04:31N 45°33' W 122°42'0 0.1
2018-Jun-04 04:01N 45°33' W 122°42'0 0.0
2018-Jun-04 03:31N 45°33' W 122°42'0 0.0
2018-Jun-04 03:00N 45°33' W 122°42'0 0.1
2018-Jun-04 02:30N 45°33' W 122°42'0 0.0
2018-Jun-04 02:00N 45°33' W 122°42'0 0.0
2018-Jun-04 01:30N 45°33' W 122°42'0 0.0
2018-Jun-04 01:01N 45°33' W 122°42'0 0.0
2018-Jun-04 00:30N 45°33' W 122°42'0 0.0
2018-Jun-04 00:01N 45°33' W 122°42'0 0.0
2018-Jun-03 23:31N 45°33' W 122°42'0 0.1
2018-Jun-03 22:56N 45°33' W 122°42'0 0.0
2018-Jun-03 22:27N 45°33' W 122°42'0 0.1
2018-Jun-03 22:00N 45°33' W 122°42'0 0.0
2018-Jun-03 21:30N 45°33' W 122°42'0 0.0
2018-Jun-03 21:01N 45°33' W 122°42'0 0.0
2018-Jun-03 20:30N 45°33' W 122°42'0 0.0
2018-Jun-03 20:00N 45°33' W 122°42'0 0.1
2018-Jun-03 19:31N 45°33' W 122°42'0 0.1
2018-Jun-03 19:01N 45°33' W 122°42'0 0.1
2018-Jun-03 18:30N 45°33' W 122°42'0 0.0
2018-Jun-03 18:00N 45°33' W 122°42'0 0.0
2018-Jun-03 17:31N 45°33' W 122°42'0 0.0
2018-Jun-03 17:00N 45°33' W 122°42'0 0.0
2018-Jun-03 16:30N 45°33' W 122°42'0 0.0
2018-Jun-03 16:00N 45°33' W 122°42'0 0.0
2018-Jun-03 15:30N 45°33' W 122°42'0 0.0
2018-Jun-03 15:00N 45°33' W 122°42'0 0.0
2018-Jun-03 14:31N 45°33' W 122°42'0 0.0
2018-Jun-03 14:00N 45°33' W 122°42'0 0.0
2018-Jun-03 13:30N 45°33' W 122°42'0 0.0
2018-Jun-03 13:00N 45°33' W 122°42'0 0.0
2018-Jun-03 12:19N 45°33' W 122°42'0 0.0
2018-Jun-03 12:00N 45°33' W 122°42'0 0.0
2018-Jun-03 11:30N 45°33' W 122°42'0 0.0
2018-Jun-03 11:01N 45°33' W 122°42'0 0.0
2018-Jun-03 10:30N 45°33' W 122°42'0 0.0
2018-Jun-03 10:00N 45°33' W 122°42'0 0.0
2018-Jun-03 09:30N 45°33' W 122°42'0 0.0
2018-Jun-03 09:00N 45°33' W 122°42'0 0.0
2018-Jun-03 08:30N 45°33' W 122°42'0 0.0
2018-Jun-03 07:59N 45°33' W 122°42'0 0.0
2018-Jun-03 07:30N 45°33' W 122°42'0 0.0
2018-Jun-03 07:00N 45°33' W 122°42'0 0.0
2018-Jun-03 06:31N 45°33' W 122°42'0 0.0
2018-Jun-03 06:00N 45°33' W 122°42'0 0.0
2018-Jun-03 05:30N 45°33' W 122°42'0 0.0
2018-Jun-03 05:00N 45°33' W 122°42'0 0.0
2018-Jun-03 04:30N 45°33' W 122°42'0 0.0
2018-Jun-03 03:47N 45°33' W 122°42'0 0.0
2018-Jun-03 03:30N 45°33' W 122°42'0 0.0
2018-Jun-03 03:00N 45°33' W 122°42'0 0.0
2018-Jun-03 02:31N 45°33' W 122°42'0 0.0
2018-Jun-03 02:00N 45°33' W 122°42'0 0.0
2018-Jun-03 01:30N 45°33' W 122°42'0 0.0
2018-Jun-03 01:00N 45°33' W 122°42'0 0.0
2018-Jun-03 00:31N 45°33' W 122°42'0 0.0
2018-Jun-03 00:00N 45°33' W 122°42'0 0.0
2018-Jun-02 23:30N 45°33' W 122°42'0 0.0
2018-Jun-02 23:00N 45°33' W 122°42'0 0.0
2018-Jun-02 22:30N 45°33' W 122°42'0 0.0
2018-Jun-02 22:01N 45°33' W 122°42'0 0.0
2018-Jun-02 21:30N 45°33' W 122°42'0 0.0
2018-Jun-02 21:00N 45°33' W 122°42'0 0.0
2018-Jun-02 20:30N 45°33' W 122°42'0 0.0
2018-Jun-02 20:00N 45°33' W 122°42'0 0.0
2018-Jun-02 19:31N 45°33' W 122°42'0 0.0
2018-Jun-02 19:00N 45°33' W 122°42'0 0.0
2018-Jun-02 18:31N 45°33' W 122°42'0 0.0
2018-Jun-02 18:00N 45°33' W 122°42'0 0.0
2018-Jun-02 17:30N 45°33' W 122°42'0 0.0
2018-Jun-02 17:00N 45°33' W 122°42'0 0.0
2018-Jun-02 16:30N 45°33' W 122°42'0 0.0
2018-Jun-02 16:01N 45°33' W 122°42'0 0.0
2018-Jun-02 15:31N 45°33' W 122°42'0 0.0
2018-Jun-02 15:00N 45°33' W 122°42'0 0.0
2018-Jun-02 14:30N 45°33' W 122°42'0 0.0
2018-Jun-02 14:00N 45°33' W 122°42'0 0.0
2018-Jun-02 13:30N 45°33' W 122°42'0 0.0
2018-Jun-02 13:00N 45°33' W 122°42'0 0.0
2018-Jun-02 12:30N 45°33' W 122°42'0 0.0
2018-Jun-02 12:00N 45°33' W 122°42'0 0.0
2018-Jun-02 11:30N 45°33' W 122°42'0 0.0
2018-Jun-02 11:00N 45°33' W 122°42'0 0.0
2018-Jun-02 10:31N 45°33' W 122°42'0 0.0
2018-Jun-02 10:00N 45°33' W 122°42'0 0.0
2018-Jun-02 09:30N 45°33' W 122°42'0 0.0
2018-Jun-02 09:00N 45°33' W 122°42'0 0.0
2018-Jun-02 08:31N 45°33' W 122°42'0 0.0
2018-Jun-02 08:00N 45°33' W 122°42'0 0.0
2018-Jun-02 07:30N 45°33' W 122°42'0 0.0
2018-Jun-02 07:00N 45°33' W 122°42'0 0.0
2018-Jun-02 06:30N 45°33' W 122°42'0 0.0
2018-Jun-02 06:01N 45°33' W 122°42'0 0.0
2018-Jun-02 05:31N 45°33' W 122°42'0 0.0
2018-Jun-02 05:00N 45°33' W 122°42'0 0.0
2018-Jun-02 04:31N 45°33' W 122°42'0 0.0
2018-Jun-02 04:00N 45°33' W 122°42'0 0.0
2018-Jun-02 03:31N 45°33' W 122°42'0 0.0
2018-Jun-02 03:00N 45°33' W 122°42'0 0.0
2018-Jun-02 02:31N 45°33' W 122°42'0 0.0
2018-Jun-02 02:01N 45°33' W 122°42'0 0.0
2018-Jun-02 01:30N 45°33' W 122°42'0 0.0
2018-Jun-02 01:00N 45°33' W 122°42'0 0.0
2018-Jun-02 00:31N 45°33' W 122°42'0 0.0
2018-Jun-02 00:00N 45°33' W 122°42'0 0.0
2018-Jun-01 23:30N 45°33' W 122°42'0 0.0
2018-Jun-01 23:00N 45°33' W 122°42'0 0.0
2018-Jun-01 22:30N 45°33' W 122°42'0 0.0
2018-Jun-01 22:00N 45°33' W 122°42'0 0.0
2018-Jun-01 21:30N 45°33' W 122°42'0 0.0
2018-Jun-01 21:00N 45°33' W 122°42'0 0.0
2018-Jun-01 20:30N 45°33' W 122°42'0 0.0
2018-Jun-01 20:01N 45°33' W 122°42'0 0.0
2018-Jun-01 19:30N 45°33' W 122°42'0 0.0
2018-Jun-01 19:01N 45°33' W 122°42'0 0.0
2018-Jun-01 18:30N 45°33' W 122°42'0 0.0
2018-Jun-01 18:00N 45°33' W 122°42'0 0.0
2018-Jun-01 17:30N 45°33' W 122°42'0 0.0
2018-Jun-01 17:00N 45°33' W 122°42'0 0.0
2018-Jun-01 16:30N 45°33' W 122°42'0 0.0
2018-Jun-01 16:01N 45°33' W 122°42'0 0.0
2018-Jun-01 15:31N 45°33' W 122°42'0 0.0
2018-Jun-01 15:00N 45°33' W 122°42'0 0.0
2018-Jun-01 14:30N 45°33' W 122°42'0 0.0
2018-Jun-01 14:00N 45°33' W 122°42'0 0.0
2018-Jun-01 13:30N 45°33' W 122°42'0 0.0
2018-Jun-01 13:00N 45°33' W 122°42'0 0.0
2018-Jun-01 12:30N 45°33' W 122°42'0 0.0
2018-Jun-01 12:00N 45°33' W 122°42'0 0.0
2018-Jun-01 11:31N 45°33' W 122°42'0 0.0
2018-Jun-01 11:01N 45°33' W 122°42'0 0.0
2018-Jun-01 10:30N 45°33' W 122°42'0 0.0
2018-Jun-01 10:00N 45°33' W 122°42'0 0.0
2018-Jun-01 09:31N 45°33' W 122°42'0 0.0
2018-Jun-01 09:00N 45°33' W 122°42'0 0.0
2018-Jun-01 08:31N 45°33' W 122°42'0 0.0
2018-Jun-01 08:00N 45°33' W 122°42'0 0.0
2018-Jun-01 07:30N 45°33' W 122°42'0 0.0
2018-Jun-01 07:00N 45°33' W 122°42'0 0.0
2018-Jun-01 06:30N 45°33' W 122°42'0 0.0
2018-Jun-01 06:00N 45°33' W 122°42'0 0.0
2018-Jun-01 05:31N 45°33' W 122°42'0 0.0
2018-Jun-01 05:00N 45°33' W 122°42'0 0.0
2018-Jun-01 04:31N 45°33' W 122°42'0 0.0
2018-Jun-01 04:00N 45°33' W 122°42'0 0.0
2018-Jun-01 03:30N 45°33' W 122°42'0 0.0
2018-Jun-01 03:01N 45°33' W 122°42'0 0.0
2018-Jun-01 02:31N 45°33' W 122°42'0 0.0
2018-Jun-01 02:00N 45°33' W 122°42'0 0.0
2018-Jun-01 01:30N 45°33' W 122°42'0 0.0
2018-Jun-01 01:01N 45°33' W 122°42'0 0.0
2018-Jun-01 00:31N 45°33' W 122°42'0 0.0
2018-Jun-01 00:00N 45°33' W 122°42'0 0.0
2018-May-31 23:30N 45°33' W 122°42'0 0.0
2018-May-31 23:00N 45°33' W 122°42'0 0.0
2018-May-31 22:31N 45°33' W 122°42'0 0.0
2018-May-31 22:00N 45°33' W 122°42'0 0.0
2018-May-31 21:30N 45°33' W 122°42'0 0.0
2018-May-31 21:00N 45°33' W 122°42'0 0.0
2018-May-31 20:30N 45°33' W 122°42'0 0.0
2018-May-31 20:01N 45°33' W 122°42'0 0.0
2018-May-31 19:30N 45°33' W 122°42'0 0.0
2018-May-31 19:00N 45°33' W 122°42'0 0.0
2018-May-31 18:30N 45°33' W 122°42'0 0.0
2018-May-31 17:58N 45°33' W 122°42'0 0.0
2018-May-31 17:30N 45°33' W 122°42'0 0.0
2018-May-31 17:01N 45°33' W 122°42'0 0.0
2018-May-31 16:30N 45°33' W 122°42'0 0.0
2018-May-31 16:00N 45°33' W 122°42'0 0.0
2018-May-31 15:30N 45°33' W 122°42'0 0.0
2018-May-31 15:00N 45°33' W 122°42'0 0.0
2018-May-31 14:31N 45°33' W 122°42'0 0.0
2018-May-31 14:00N 45°33' W 122°42'0 0.0
2018-May-31 13:30N 45°33' W 122°42'0 0.0
2018-May-31 13:00N 45°33' W 122°42'0 0.0
2018-May-31 12:31N 45°33' W 122°42'0 0.0
2018-May-31 11:54N 45°33' W 122°42'0 0.0
2018-May-31 11:23N 45°33' W 122°42'0 0.0
2018-May-31 10:56N 45°33' W 122°42'0 0.0
2018-May-31 10:30N 45°33' W 122°42'0 0.0
2018-May-31 04:41N 45°33' W 122°42'0 0.0
2018-May-31 04:30N 45°33' W 122°42'0 0.0
2018-May-31 04:01N 45°33' W 122°42'0 0.0
2018-May-31 03:30N 45°33' W 122°42'0 0.0
2018-May-31 03:00N 45°33' W 122°42'0 0.0
2018-May-31 02:30N 45°33' W 122°42'0 0.0
2018-May-31 02:00N 45°33' W 122°42'0 0.0
2018-May-31 01:30N 45°33' W 122°42'0 0.0
2018-May-31 01:00N 45°33' W 122°42'0 0.0
2018-May-31 00:30N 45°33' W 122°42'0 0.0
2018-May-31 00:00N 45°33' W 122°42'0 0.0
2018-May-30 23:31N 45°33' W 122°42'0 0.0
2018-May-30 23:01N 45°33' W 122°42'5 7.0
2018-May-30 22:16N 45°37' W 122°47'310.2
2018-May-30 22:01N 45°39' W 122°46'2 4.0
2018-May-30 21:30N 45°38' W 122°43'0 0.0
2018-May-30 21:01N 45°38' W 122°43'0 0.0
2018-May-30 20:30N 45°38' W 122°43'0 0.0
2018-May-30 20:01N 45°38' W 122°43'0 0.0
2018-May-30 19:30N 45°38' W 122°43'0 0.4
2018-May-30 19:01N 45°38' W 122°43'3 6.3
2018-May-30 18:29N 45°37' W 122°47'4 9.1
2018-May-30 18:00N 45°33' W 122°43'0 1.0
2018-May-30 17:30N 45°33' W 122°42'0 0.0
2018-May-30 17:01N 45°33' W 122°42'0 0.0
2018-May-30 16:30N 45°33' W 122°42'0 0.0
2018-May-30 16:00N 45°33' W 122°42'0 0.0
2018-May-30 15:17N 45°33' W 122°42'0 0.0
2018-May-30 15:00N 45°33' W 122°42'0 0.0
2018-May-30 14:31N 45°33' W 122°42'0 0.0
2018-May-30 14:01N 45°33' W 122°42'0 0.0
2018-May-30 13:30N 45°33' W 122°42'0 0.0
2018-May-30 13:00N 45°33' W 122°42'0 0.0
2018-May-30 12:30N 45°33' W 122°42'0 0.0
2018-May-30 12:00N 45°33' W 122°42'0 0.0
2018-May-30 11:30N 45°33' W 122°42'0 0.0
2018-May-30 11:00N 45°33' W 122°42'0 0.0
2018-May-30 10:30N 45°33' W 122°42'0 0.0
2018-May-30 10:01N 45°33' W 122°42'0 0.0
2018-May-30 09:31N 45°33' W 122°42'0 0.0
2018-May-30 09:00N 45°33' W 122°42'0 0.0
2018-May-30 08:31N 45°33' W 122°42'0 0.0
2018-May-30 08:00N 45°33' W 122°42'0 0.1
2018-May-30 07:30N 45°33' W 122°42'0 0.1
2018-May-30 07:00N 45°33' W 122°42'0 0.0
2018-May-30 06:31N 45°33' W 122°42'0 0.0
2018-May-30 06:01N 45°33' W 122°42'0 0.0
2018-May-30 05:30N 45°33' W 122°42'0 0.0
2018-May-30 05:01N 45°33' W 122°42'0 0.0
2018-May-30 04:30N 45°33' W 122°42'0 0.0
2018-May-30 04:00N 45°33' W 122°42'0 0.0
2018-May-30 03:30N 45°33' W 122°42'0 0.0
2018-May-30 03:00N 45°33' W 122°42'0 0.0
2018-May-30 02:30N 45°33' W 122°42'0 0.0
2018-May-30 02:00N 45°33' W 122°42'0 0.0
2018-May-30 01:30N 45°33' W 122°42'0 0.0
2018-May-30 01:00N 45°33' W 122°42'0 0.0
2018-May-30 00:30N 45°33' W 122°42'0 0.0
2018-May-30 00:00N 45°33' W 122°42'0 0.0
2018-May-29 23:31N 45°33' W 122°42'0 0.0
2018-May-29 23:00N 45°33' W 122°42'0 0.0
2018-May-29 22:30N 45°33' W 122°42'0 0.0
2018-May-29 22:00N 45°33' W 122°42'0 0.0
2018-May-29 21:30N 45°33' W 122°42'0 0.0
2018-May-29 21:00N 45°33' W 122°42'0 0.0
2018-May-29 20:31N 45°33' W 122°42'0 0.0
2018-May-29 20:00N 45°33' W 122°42'0 0.0
2018-May-29 19:30N 45°33' W 122°42'0 0.0
2018-May-29 19:01N 45°33' W 122°42'0 0.0
2018-May-29 18:30N 45°33' W 122°42'0 0.0
2018-May-29 18:01N 45°33' W 122°42'0 0.0
2018-May-29 17:30N 45°33' W 122°42'0 0.0
2018-May-29 17:01N 45°33' W 122°42'0 0.0
2018-May-29 16:31N 45°33' W 122°42'0 0.0
2018-May-29 16:00N 45°33' W 122°42'0 0.0
2018-May-29 15:30N 45°33' W 122°42'0 0.0
2018-May-29 15:00N 45°33' W 122°42'0 0.0
2018-May-29 14:30N 45°33' W 122°42'0 0.0
2018-May-29 14:00N 45°33' W 122°42'0 0.0
2018-May-29 13:31N 45°33' W 122°42'0 0.0
2018-May-29 13:00N 45°33' W 122°42'0 0.0
2018-May-29 12:30N 45°33' W 122°42'0 0.0
2018-May-29 12:00N 45°33' W 122°42'0 0.0
2018-May-29 11:30N 45°33' W 122°42'0 0.0
2018-May-29 11:00N 45°33' W 122°42'0 0.0
2018-May-29 10:30N 45°33' W 122°42'0 0.0
2018-May-29 10:00N 45°33' W 122°42'0 0.0
2018-May-29 09:31N 45°33' W 122°42'0 0.0
2018-May-29 09:00N 45°33' W 122°42'0 0.0
2018-May-29 08:30N 45°33' W 122°42'  
Track history (hours):
 
Tides and Currents Weather Stations Pressure Air Temp Water Temp Dewpoint Dewpoint Depression Visibility Wind Speed Wind Dir Waves Ship Positions

Henry Sause

Owner: Sause Bros. Inc., COOS BAY, OR. More information available from US FCC via Universal Licensing System and Coast Guard Vessel Documentation Center.

Last reported at 2018-Jun-08 08:19 UTC. Time now 2018-Jun-24 20:27 UTC.
Position N 44°18' W 124°51'.
Warning: this ship's position is 16 days out of date.

Type: Tow > 200 m length. MMSI: 367007870.

Date/timePositionNaut miles runAvg speedWind from/ knotsBaromVisibWave heightAir tempDewpointWater temp
2018-Jun-08 08:19N 44°18' W 124°51'69 7.4
2018-Jun-07 22:53N 45°26' W 124°31'4 7.4
2018-Jun-07 22:19N 45°30' W 124°31'2 7.4
2018-Jun-07 22:00N 45°32' W 124°31'4 7.7
2018-Jun-07 21:30N 45°36' W 124°30'4 7.8
2018-Jun-07 21:00N 45°40' W 124°29'4 8.0
2018-Jun-07 20:30N 45°44' W 124°28'4 8.3
2018-Jun-07 20:00N 45°48' W 124°28'7 8.4
2018-Jun-07 19:11N 45°55' W 124°26'1 8.2
2018-Jun-07 19:01N 45°56' W 124°26'4 8.5
2018-Jun-07 18:30N 46°00' W 124°25'4 8.0
2018-Jun-07 18:00N 46°04' W 124°23'4 7.3
2018-Jun-07 17:30N 46°07' W 124°19'7 8.8
2018-Jun-07 16:43N 46°11' W 124°12'0 0.0
2018-Jun-07 16:27N 46°11' W 124°12'3 6.3
2018-Jun-07 16:00N 46°13' W 124°08'3 6.4
2018-Jun-07 15:30N 46°15' W 124°05'4 7.2
2018-Jun-07 15:01N 46°15' W 123°60'4 7.9
2018-Jun-07 14:31N 46°12' W 123°56'4 7.5
2018-Jun-07 14:00N 46°12' W 123°50'4 8.1
2018-Jun-07 13:31N 46°13' W 123°45'4 8.2
2018-Jun-07 13:00N 46°15' W 123°40'4 8.8
2018-Jun-07 12:31N 46°15' W 123°33'4 7.9
2018-Jun-07 12:00N 46°16' W 123°28'6 7.9
2018-Jun-07 11:18N 46°11' W 123°25'3 8.5
2018-Jun-07 11:00N 46°09' W 123°23'6 8.2
2018-Jun-07 10:15N 46°10' W 123°14'2 8.9
2018-Jun-07 10:01N 46°11' W 123°11'4 7.9
2018-Jun-07 09:31N 46°10' W 123°05'4 8.7
2018-Jun-07 09:01N 46°08' W 123°00'3 4.4
2018-Jun-07 08:20N 46°06' W 122°57'0 0.4
2018-Jun-07 08:01N 46°06' W 122°57'0 0.0
2018-Jun-07 07:30N 46°06' W 122°57'0 0.0
2018-Jun-07 06:09N 46°06' W 122°57'0 0.0
2018-Jun-07 06:01N 46°06' W 122°57'0 0.0
2018-Jun-07 05:30N 46°06' W 122°57'0 0.0
2018-Jun-07 05:01N 46°06' W 122°57'0 0.0
2018-Jun-07 04:30N 46°06' W 122°57'0 0.0
2018-Jun-07 03:45N 46°06' W 122°57'0 0.0
2018-Jun-07 03:24N 46°06' W 122°57'0 0.0
2018-Jun-07 03:01N 46°06' W 122°57'0 0.0
2018-Jun-07 02:20N 46°06' W 122°57'0 0.0
2018-Jun-07 02:00N 46°06' W 122°57'0 0.0
2018-Jun-07 01:31N 46°06' W 122°57'0 0.0
2018-Jun-07 00:59N 46°06' W 122°57'0 0.0
2018-Jun-07 00:30N 46°06' W 122°57'0 0.0
2018-Jun-07 00:00N 46°06' W 122°57'0 0.0
2018-Jun-06 23:30N 46°06' W 122°57'0 0.0
2018-Jun-06 23:00N 46°06' W 122°57'0 0.0
2018-Jun-06 22:22N 46°06' W 122°57'0 0.0
2018-Jun-06 22:00N 46°06' W 122°57'0 0.0
2018-Jun-06 21:31N 46°06' W 122°57'0 0.0
2018-Jun-06 21:00N 46°06' W 122°57'0 0.0
2018-Jun-06 20:30N 46°06' W 122°57'0 0.0
2018-Jun-06 20:01N 46°06' W 122°57'0 0.0
2018-Jun-06 19:16N 46°06' W 122°57'0 0.0
2018-Jun-06 19:01N 46°06' W 122°57'0 0.0
2018-Jun-06 18:30N 46°06' W 122°57'4 8.4
2018-Jun-06 18:00N 46°03' W 122°53'5 9.6
2018-Jun-06 17:31N 45°59' W 122°50'611.0
2018-Jun-06 17:01N 45°53' W 122°48'510.4
2018-Jun-06 16:30N 45°48' W 122°47'611.3
2018-Jun-06 16:00N 45°42' W 122°46'4 8.7
2018-Jun-06 15:30N 45°38' W 122°47'3 6.8
2018-Jun-06 15:00N 45°35' W 122°46'3 6.0
2018-Jun-06 14:30N 45°33' W 122°42'0 0.1
2018-Jun-06 14:01N 45°33' W 122°42'0 0.0
2018-Jun-06 13:30N 45°33' W 122°42'0 0.0
2018-Jun-06 13:00N 45°33' W 122°42'0 0.0
2018-Jun-06 12:30N 45°33' W 122°42'0 0.0
2018-Jun-06 12:00N 45°33' W 122°42'0 0.1
2018-Jun-06 11:30N 45°33' W 122°42'0 0.1
2018-Jun-06 11:00N 45°33' W 122°42'0 0.0
2018-Jun-06 10:30N 45°33' W 122°42'0 0.1
2018-Jun-06 10:01N 45°33' W 122°42'0 0.1
2018-Jun-06 09:30N 45°33' W 122°42'0 0.1
2018-Jun-06 09:01N 45°33' W 122°42'0 0.1
2018-Jun-06 08:30N 45°33' W 122°42'0 0.0
2018-Jun-06 08:00N 45°33' W 122°42'0 0.0
2018-Jun-06 07:31N 45°33' W 122°42'0 0.0
2018-Jun-06 07:00N 45°33' W 122°42'0 0.1
2018-Jun-06 06:30N 45°33' W 122°42'0 0.0
2018-Jun-06 06:00N 45°33' W 122°42'0 0.1
2018-Jun-06 05:31N 45°33' W 122°42'0 0.0
2018-Jun-06 04:57N 45°33' W 122°42'0 0.1
2018-Jun-06 04:27N 45°33' W 122°42'0 0.1
2018-Jun-06 04:00N 45°33' W 122°42'0 0.0
2018-Jun-06 03:30N 45°33' W 122°42'0 0.0
2018-Jun-06 03:00N 45°33' W 122°42'0 0.1
2018-Jun-06 02:30N 45°33' W 122°42'0 0.0
2018-Jun-06 02:01N 45°33' W 122°42'0 0.1
2018-Jun-06 01:31N 45°33' W 122°42'0 0.1
2018-Jun-06 01:00N 45°33' W 122°42'0 0.1
2018-Jun-06 00:31N 45°33' W 122°42'0 0.0
2018-Jun-06 00:00N 45°33' W 122°42'0 0.0
2018-Jun-05 23:30N 45°33' W 122°42'0 0.1
2018-Jun-05 23:00N 45°33' W 122°42'0 0.1
2018-Jun-05 22:30N 45°33' W 122°42'0 0.0
2018-Jun-05 22:00N 45°33' W 122°42'0 0.0
2018-Jun-05 21:30N 45°33' W 122°42'0 0.1
2018-Jun-05 21:00N 45°33' W 122°42'0 0.1
2018-Jun-05 20:30N 45°33' W 122°42'0 0.0
2018-Jun-05 20:01N 45°33' W 122°42'0 0.0
2018-Jun-05 19:31N 45°33' W 122°42'0 0.1
2018-Jun-05 19:00N 45°33' W 122°42'0 0.1
2018-Jun-05 18:30N 45°33' W 122°42'0 0.0
2018-Jun-05 18:00N 45°33' W 122°42'0 0.1
2018-Jun-05 17:30N 45°33' W 122°42'0 0.1
2018-Jun-05 17:00N 45°33' W 122°42'0 0.1
2018-Jun-05 16:30N 45°33' W 122°42'0 0.1
2018-Jun-05 16:00N 45°33' W 122°42'0 0.0
2018-Jun-05 15:31N 45°33' W 122°42'0 0.1
2018-Jun-05 15:00N 45°33' W 122°42'0 0.0
2018-Jun-05 14:30N 45°33' W 122°42'0 0.1
2018-Jun-05 14:00N 45°33' W 122°42'0 0.0
2018-Jun-05 13:31N 45°33' W 122°42'0 0.0
2018-Jun-05 13:00N 45°33' W 122°42'0 0.0
2018-Jun-05 12:30N 45°33' W 122°42'0 0.1
2018-Jun-05 12:00N 45°33' W 122°42'0 0.0
2018-Jun-05 11:30N 45°33' W 122°42'0 0.1
2018-Jun-05 11:00N 45°33' W 122°42'0 0.0
2018-Jun-05 10:30N 45°33' W 122°42'0 0.1
2018-Jun-05 10:00N 45°33' W 122°42'0 0.0
2018-Jun-05 09:30N 45°33' W 122°42'0 0.1
2018-Jun-05 09:01N 45°33' W 122°42'0 0.0
2018-Jun-05 08:30N 45°33' W 122°42'0 0.0
2018-Jun-05 08:00N 45°33' W 122°42'0 0.0
2018-Jun-05 07:30N 45°33' W 122°42'0 0.0
2018-Jun-05 06:58N 45°33' W 122°42'0 0.0
2018-Jun-05 06:28N 45°33' W 122°42'0 0.0
2018-Jun-05 05:58N 45°33' W 122°42'0 0.0
2018-Jun-05 05:30N 45°33' W 122°42'0 0.0
2018-Jun-05 05:00N 45°33' W 122°42'0 0.1
2018-Jun-05 04:30N 45°33' W 122°42'0 0.0
2018-Jun-05 04:00N 45°33' W 122°42'0 0.0
2018-Jun-05 03:30N 45°33' W 122°42'0 0.0
2018-Jun-05 02:59N 45°33' W 122°42'0 0.1
2018-Jun-05 02:30N 45°33' W 122°42'0 0.1
2018-Jun-05 02:00N 45°33' W 122°42'0 0.1
2018-Jun-05 01:30N 45°33' W 122°42'0 0.0
2018-Jun-05 01:00N 45°33' W 122°42'0 0.0
2018-Jun-05 00:30N 45°33' W 122°42'0 0.1
2018-Jun-05 00:00N 45°33' W 122°42'0 0.1
2018-Jun-04 23:31N 45°33' W 122°42'0 0.1
2018-Jun-04 23:00N 45°33' W 122°42'0 0.1
2018-Jun-04 22:28N 45°33' W 122°42'0 0.0
2018-Jun-04 22:00N 45°33' W 122°42'0 0.1
2018-Jun-04 21:30N 45°33' W 122°42'0 0.1
2018-Jun-04 21:00N 45°33' W 122°42'0 0.1
2018-Jun-04 20:30N 45°33' W 122°42'0 0.0
2018-Jun-04 20:01N 45°33' W 122°42'0 0.1
2018-Jun-04 19:30N 45°33' W 122°42'0 0.1
2018-Jun-04 19:00N 45°33' W 122°42'0 0.1
2018-Jun-04 18:30N 45°33' W 122°42'0 0.1
2018-Jun-04 18:01N 45°33' W 122°42'0 0.0
2018-Jun-04 17:30N 45°33' W 122°42'0 0.1
2018-Jun-04 17:00N 45°33' W 122°42'0 0.0
2018-Jun-04 16:30N 45°33' W 122°42'0 0.0
2018-Jun-04 16:00N 45°33' W 122°42'0 0.1
2018-Jun-04 15:31N 45°33' W 122°42'0 0.1
2018-Jun-04 15:00N 45°33' W 122°42'0 0.0
2018-Jun-04 14:30N 45°33' W 122°42'0 0.0
2018-Jun-04 14:00N 45°33' W 122°42'0 0.0
2018-Jun-04 13:30N 45°33' W 122°42'0 0.0
2018-Jun-04 13:00N 45°33' W 122°42'0 0.0
2018-Jun-04 12:30N 45°33' W 122°42'0 0.0
2018-Jun-04 12:00N 45°33' W 122°42'0 0.0
2018-Jun-04 11:30N 45°33' W 122°42'0 0.0
2018-Jun-04 11:01N 45°33' W 122°42'0 0.1
2018-Jun-04 10:30N 45°33' W 122°42'0 0.0
2018-Jun-04 10:00N 45°33' W 122°42'0 0.1
2018-Jun-04 09:30N 45°33' W 122°42'0 0.1
2018-Jun-04 09:01N 45°33' W 122°42'0 0.1
2018-Jun-04 08:30N 45°33' W 122°42'0 0.1
2018-Jun-04 08:00N 45°33' W 122°42'0 0.0
2018-Jun-04 07:31N 45°33' W 122°42'0 0.1
2018-Jun-04 07:00N 45°33' W 122°42'0 0.1
2018-Jun-04 06:31N 45°33' W 122°42'0 0.1
2018-Jun-04 06:00N 45°33' W 122°42'0 0.0
2018-Jun-04 05:30N 45°33' W 122°42'0 0.1
2018-Jun-04 05:00N 45°33' W 122°42'0 0.1
2018-Jun-04 04:31N 45°33' W 122°42'0 0.1
2018-Jun-04 04:01N 45°33' W 122°42'0 0.0
2018-Jun-04 03:31N 45°33' W 122°42'0 0.0
2018-Jun-04 03:00N 45°33' W 122°42'0 0.1
2018-Jun-04 02:30N 45°33' W 122°42'0 0.0
2018-Jun-04 02:00N 45°33' W 122°42'0 0.0
2018-Jun-04 01:30N 45°33' W 122°42'0 0.0
2018-Jun-04 01:01N 45°33' W 122°42'0 0.0
2018-Jun-04 00:30N 45°33' W 122°42'0 0.0
2018-Jun-04 00:01N 45°33' W 122°42'0 0.0
2018-Jun-03 23:31N 45°33' W 122°42'0 0.1
2018-Jun-03 22:56N 45°33' W 122°42'0 0.0
2018-Jun-03 22:27N 45°33' W 122°42'0 0.1
2018-Jun-03 22:00N 45°33' W 122°42'0 0.0
2018-Jun-03 21:30N 45°33' W 122°42'0 0.0
2018-Jun-03 21:01N 45°33' W 122°42'0 0.0
2018-Jun-03 20:30N 45°33' W 122°42'0 0.0
2018-Jun-03 20:00N 45°33' W 122°42'0 0.1
2018-Jun-03 19:31N 45°33' W 122°42'0 0.1
2018-Jun-03 19:01N 45°33' W 122°42'0 0.1
2018-Jun-03 18:30N 45°33' W 122°42'0 0.0
2018-Jun-03 18:00N 45°33' W 122°42'0 0.0
2018-Jun-03 17:31N 45°33' W 122°42'0 0.0
2018-Jun-03 17:00N 45°33' W 122°42'0 0.0
2018-Jun-03 16:30N 45°33' W 122°42'0 0.0
2018-Jun-03 16:00N 45°33' W 122°42'0 0.0
2018-Jun-03 15:30N 45°33' W 122°42'0 0.0
2018-Jun-03 15:00N 45°33' W 122°42'0 0.0
2018-Jun-03 14:31N 45°33' W 122°42'0 0.0
2018-Jun-03 14:00N 45°33' W 122°42'0 0.0
2018-Jun-03 13:30N 45°33' W 122°42'0 0.0
2018-Jun-03 13:00N 45°33' W 122°42'0 0.0
2018-Jun-03 12:19N 45°33' W 122°42'0 0.0
2018-Jun-03 12:00N 45°33' W 122°42'0 0.0
2018-Jun-03 11:30N 45°33' W 122°42'0 0.0
2018-Jun-03 11:01N 45°33' W 122°42'0 0.0
2018-Jun-03 10:30N 45°33' W 122°42'0 0.0
2018-Jun-03 10:00N 45°33' W 122°42'0 0.0
2018-Jun-03 09:30N 45°33' W 122°42'0 0.0
2018-Jun-03 09:00N 45°33' W 122°42'0 0.0
2018-Jun-03 08:30N 45°33' W 122°42'0 0.0
2018-Jun-03 07:59N 45°33' W 122°42'0 0.0
2018-Jun-03 07:30N 45°33' W 122°42'0 0.0
2018-Jun-03 07:00N 45°33' W 122°42'0 0.0
2018-Jun-03 06:31N 45°33' W 122°42'0 0.0
2018-Jun-03 06:00N 45°33' W 122°42'0 0.0
2018-Jun-03 05:30N 45°33' W 122°42'0 0.0
2018-Jun-03 05:00N 45°33' W 122°42'0 0.0
2018-Jun-03 04:30N 45°33' W 122°42'0 0.0
2018-Jun-03 03:47N 45°33' W 122°42'0 0.0
2018-Jun-03 03:30N 45°33' W 122°42'0 0.0
2018-Jun-03 03:00N 45°33' W 122°42'0 0.0
2018-Jun-03 02:31N 45°33' W 122°42'0 0.0
2018-Jun-03 02:00N 45°33' W 122°42'0 0.0
2018-Jun-03 01:30N 45°33' W 122°42'0 0.0
2018-Jun-03 01:00N 45°33' W 122°42'0 0.0
2018-Jun-03 00:31N 45°33' W 122°42'0 0.0
2018-Jun-03 00:00N 45°33' W 122°42'0 0.0
2018-Jun-02 23:30N 45°33' W 122°42'0 0.0
2018-Jun-02 23:00N 45°33' W 122°42'0 0.0
2018-Jun-02 22:30N 45°33' W 122°42'0 0.0
2018-Jun-02 22:01N 45°33' W 122°42'0 0.0
2018-Jun-02 21:30N 45°33' W 122°42'0 0.0
2018-Jun-02 21:00N 45°33' W 122°42'0 0.0
2018-Jun-02 20:30N 45°33' W 122°42'0 0.0
2018-Jun-02 20:00N 45°33' W 122°42'0 0.0
2018-Jun-02 19:31N 45°33' W 122°42'0 0.0
2018-Jun-02 19:00N 45°33' W 122°42'0 0.0
2018-Jun-02 18:31N 45°33' W 122°42'0 0.0
2018-Jun-02 18:00N 45°33' W 122°42'0 0.0
2018-Jun-02 17:30N 45°33' W 122°42'0 0.0
2018-Jun-02 17:00N 45°33' W 122°42'0 0.0
2018-Jun-02 16:30N 45°33' W 122°42'0 0.0
2018-Jun-02 16:01N 45°33' W 122°42'0 0.0
2018-Jun-02 15:31N 45°33' W 122°42'0 0.0
2018-Jun-02 15:00N 45°33' W 122°42'0 0.0
2018-Jun-02 14:30N 45°33' W 122°42'0 0.0
2018-Jun-02 14:00N 45°33' W 122°42'0 0.0
2018-Jun-02 13:30N 45°33' W 122°42'0 0.0
2018-Jun-02 13:00N 45°33' W 122°42'0 0.0
2018-Jun-02 12:30N 45°33' W 122°42'0 0.0
2018-Jun-02 12:00N 45°33' W 122°42'0 0.0
2018-Jun-02 11:30N 45°33' W 122°42'0 0.0
2018-Jun-02 11:00N 45°33' W 122°42'0 0.0
2018-Jun-02 10:31N 45°33' W 122°42'0 0.0
2018-Jun-02 10:00N 45°33' W 122°42'0 0.0
2018-Jun-02 09:30N 45°33' W 122°42'0 0.0
2018-Jun-02 09:00N 45°33' W 122°42'0 0.0
2018-Jun-02 08:31N 45°33' W 122°42'0 0.0
2018-Jun-02 08:00N 45°33' W 122°42'0 0.0
2018-Jun-02 07:30N 45°33' W 122°42'0 0.0
2018-Jun-02 07:00N 45°33' W 122°42'0 0.0
2018-Jun-02 06:30N 45°33' W 122°42'0 0.0
2018-Jun-02 06:01N 45°33' W 122°42'0 0.0
2018-Jun-02 05:31N 45°33' W 122°42'0 0.0
2018-Jun-02 05:00N 45°33' W 122°42'0 0.0
2018-Jun-02 04:31N 45°33' W 122°42'0 0.0
2018-Jun-02 04:00N 45°33' W 122°42'0 0.0
2018-Jun-02 03:31N 45°33' W 122°42'0 0.0
2018-Jun-02 03:00N 45°33' W 122°42'0 0.0
2018-Jun-02 02:31N 45°33' W 122°42'0 0.0
2018-Jun-02 02:01N 45°33' W 122°42'0 0.0
2018-Jun-02 01:30N 45°33' W 122°42'0 0.0
2018-Jun-02 01:00N 45°33' W 122°42'0 0.0
2018-Jun-02 00:31N 45°33' W 122°42'0 0.0
2018-Jun-02 00:00N 45°33' W 122°42'0 0.0
2018-Jun-01 23:30N 45°33' W 122°42'0 0.0
2018-Jun-01 23:00N 45°33' W 122°42'0 0.0
2018-Jun-01 22:30N 45°33' W 122°42'0 0.0
2018-Jun-01 22:00N 45°33' W 122°42'0 0.0
2018-Jun-01 21:30N 45°33' W 122°42'0 0.0
2018-Jun-01 21:00N 45°33' W 122°42'0 0.0
2018-Jun-01 20:30N 45°33' W 122°42'0 0.0
2018-Jun-01 20:01N 45°33' W 122°42'0 0.0
2018-Jun-01 19:30N 45°33' W 122°42'0 0.0
2018-Jun-01 19:01N 45°33' W 122°42'0 0.0
2018-Jun-01 18:30N 45°33' W 122°42'0 0.0
2018-Jun-01 18:00N 45°33' W 122°42'0 0.0
2018-Jun-01 17:30N 45°33' W 122°42'0 0.0
2018-Jun-01 17:00N 45°33' W 122°42'0 0.0
2018-Jun-01 16:30N 45°33' W 122°42'0 0.0
2018-Jun-01 16:01N 45°33' W 122°42'0 0.0
2018-Jun-01 15:31N 45°33' W 122°42'0 0.0
2018-Jun-01 15:00N 45°33' W 122°42'0 0.0
2018-Jun-01 14:30N 45°33' W 122°42'0 0.0
2018-Jun-01 14:00N 45°33' W 122°42'0 0.0
2018-Jun-01 13:30N 45°33' W 122°42'0 0.0
2018-Jun-01 13:00N 45°33' W 122°42'0 0.0
2018-Jun-01 12:30N 45°33' W 122°42'0 0.0
2018-Jun-01 12:00N 45°33' W 122°42'0 0.0
2018-Jun-01 11:31N 45°33' W 122°42'0 0.0
2018-Jun-01 11:01N 45°33' W 122°42'0 0.0
2018-Jun-01 10:30N 45°33' W 122°42'0 0.0
2018-Jun-01 10:00N 45°33' W 122°42'0 0.0
2018-Jun-01 09:31N 45°33' W 122°42'0 0.0
2018-Jun-01 09:00N 45°33' W 122°42'0 0.0
2018-Jun-01 08:31N 45°33' W 122°42'0 0.0
2018-Jun-01 08:00N 45°33' W 122°42'0 0.0
2018-Jun-01 07:30N 45°33' W 122°42'0 0.0
2018-Jun-01 07:00N 45°33' W 122°42'0 0.0
2018-Jun-01 06:30N 45°33' W 122°42'0 0.0
2018-Jun-01 06:00N 45°33' W 122°42'0 0.0
2018-Jun-01 05:31N 45°33' W 122°42'0 0.0
2018-Jun-01 05:00N 45°33' W 122°42'0 0.0
2018-Jun-01 04:31N 45°33' W 122°42'0 0.0
2018-Jun-01 04:00N 45°33' W 122°42'0 0.0
2018-Jun-01 03:30N 45°33' W 122°42'0 0.0
2018-Jun-01 03:01N 45°33' W 122°42'0 0.0
2018-Jun-01 02:31N 45°33' W 122°42'0 0.0
2018-Jun-01 02:00N 45°33' W 122°42'0 0.0
2018-Jun-01 01:30N 45°33' W 122°42'0 0.0
2018-Jun-01 01:01N 45°33' W 122°42'0 0.0
2018-Jun-01 00:31N 45°33' W 122°42'0 0.0
2018-Jun-01 00:00N 45°33' W 122°42'0 0.0
2018-May-31 23:30N 45°33' W 122°42'0 0.0
2018-May-31 23:00N 45°33' W 122°42'0 0.0
2018-May-31 22:31N 45°33' W 122°42'0 0.0
2018-May-31 22:00N 45°33' W 122°42'0 0.0
2018-May-31 21:30N 45°33' W 122°42'0 0.0
2018-May-31 21:00N 45°33' W 122°42'0 0.0
2018-May-31 20:30N 45°33' W 122°42'0 0.0
2018-May-31 20:01N 45°33' W 122°42'0 0.0
2018-May-31 19:30N 45°33' W 122°42'0 0.0
2018-May-31 19:00N 45°33' W 122°42'0 0.0
2018-May-31 18:30N 45°33' W 122°42'0 0.0
2018-May-31 17:58N 45°33' W 122°42'0 0.0
2018-May-31 17:30N 45°33' W 122°42'0 0.0
2018-May-31 17:01N 45°33' W 122°42'0 0.0
2018-May-31 16:30N 45°33' W 122°42'0 0.0
2018-May-31 16:00N 45°33' W 122°42'0 0.0
2018-May-31 15:30N 45°33' W 122°42'0 0.0
2018-May-31 15:00N 45°33' W 122°42'0 0.0
2018-May-31 14:31N 45°33' W 122°42'0 0.0
2018-May-31 14:00N 45°33' W 122°42'0 0.0
2018-May-31 13:30N 45°33' W 122°42'0 0.0
2018-May-31 13:00N 45°33' W 122°42'0 0.0
2018-May-31 12:31N 45°33' W 122°42'0 0.0
2018-May-31 11:54N 45°33' W 122°42'0 0.0
2018-May-31 11:23N 45°33' W 122°42'0 0.0
2018-May-31 10:56N 45°33' W 122°42'0 0.0
2018-May-31 10:30N 45°33' W 122°42'0 0.0
2018-May-31 04:41N 45°33' W 122°42'0 0.0
2018-May-31 04:30N 45°33' W 122°42'0 0.0
2018-May-31 04:01N 45°33' W 122°42'0 0.0
2018-May-31 03:30N 45°33' W 122°42'0 0.0
2018-May-31 03:00N 45°33' W 122°42'0 0.0
2018-May-31 02:30N 45°33' W 122°42'0 0.0
2018-May-31 02:00N 45°33' W 122°42'0 0.0
2018-May-31 01:30N 45°33' W 122°42'0 0.0
2018-May-31 01:00N 45°33' W 122°42'0 0.0
2018-May-31 00:30N 45°33' W 122°42'0 0.0
2018-May-31 00:00N 45°33' W 122°42'0 0.0
2018-May-30 23:31N 45°33' W 122°42'0 0.0
2018-May-30 23:01N 45°33' W 122°42'5 7.0
2018-May-30 22:16N 45°37' W 122°47'310.2
2018-May-30 22:01N 45°39' W 122°46'2 4.0
2018-May-30 21:30N 45°38' W 122°43'0 0.0
2018-May-30 21:01N 45°38' W 122°43'0 0.0
2018-May-30 20:30N 45°38' W 122°43'0 0.0
2018-May-30 20:01N 45°38' W 122°43'0 0.0
2018-May-30 19:30N 45°38' W 122°43'0 0.4
2018-May-30 19:01N 45°38' W 122°43'3 6.3
2018-May-30 18:29N 45°37' W 122°47'4 9.1
2018-May-30 18:00N 45°33' W 122°43'0 1.0
2018-May-30 17:30N 45°33' W 122°42'0 0.0
2018-May-30 17:01N 45°33' W 122°42'0 0.0
2018-May-30 16:30N 45°33' W 122°42'0 0.0
2018-May-30 16:00N 45°33' W 122°42'0 0.0
2018-May-30 15:17N 45°33' W 122°42'0 0.0
2018-May-30 15:00N 45°33' W 122°42'0 0.0
2018-May-30 14:31N 45°33' W 122°42'0 0.0
2018-May-30 14:01N 45°33' W 122°42'0 0.0
2018-May-30 13:30N 45°33' W 122°42'0 0.0
2018-May-30 13:00N 45°33' W 122°42'0 0.0
2018-May-30 12:30N 45°33' W 122°42'0 0.0
2018-May-30 12:00N 45°33' W 122°42'0 0.0
2018-May-30 11:30N 45°33' W 122°42'0 0.0
2018-May-30 11:00N 45°33' W 122°42'0 0.0
2018-May-30 10:30N 45°33' W 122°42'0 0.0
2018-May-30 10:01N 45°33' W 122°42'0 0.0
2018-May-30 09:31N 45°33' W 122°42'0 0.0
2018-May-30 09:00N 45°33' W 122°42'0 0.0
2018-May-30 08:31N 45°33' W 122°42'0 0.0
2018-May-30 08:00N 45°33' W 122°42'0 0.1
2018-May-30 07:30N 45°33' W 122°42'0 0.1
2018-May-30 07:00N 45°33' W 122°42'0 0.0
2018-May-30 06:31N 45°33' W 122°42'0 0.0
2018-May-30 06:01N 45°33' W 122°42'0 0.0
2018-May-30 05:30N 45°33' W 122°42'0 0.0
2018-May-30 05:01N 45°33' W 122°42'0 0.0
2018-May-30 04:30N 45°33' W 122°42'0 0.0
2018-May-30 04:00N 45°33' W 122°42'0 0.0
2018-May-30 03:30N 45°33' W 122°42'0 0.0
2018-May-30 03:00N 45°33' W 122°42'0 0.0
2018-May-30 02:30N 45°33' W 122°42'0 0.0
2018-May-30 02:00N 45°33' W 122°42'0 0.0
2018-May-30 01:30N 45°33' W 122°42'0 0.0
2018-May-30 01:00N 45°33' W 122°42'0 0.0
2018-May-30 00:30N 45°33' W 122°42'0 0.0
2018-May-30 00:00N 45°33' W 122°42'0 0.0
2018-May-29 23:31N 45°33' W 122°42'0 0.0
2018-May-29 23:00N 45°33' W 122°42'0 0.0
2018-May-29 22:30N 45°33' W 122°42'0 0.0
2018-May-29 22:00N 45°33' W 122°42'0 0.0
2018-May-29 21:30N 45°33' W 122°42'0 0.0
2018-May-29 21:00N 45°33' W 122°42'0 0.0
2018-May-29 20:31N 45°33' W 122°42'0 0.0
2018-May-29 20:00N 45°33' W 122°42'0 0.0
2018-May-29 19:30N 45°33' W 122°42'0 0.0
2018-May-29 19:01N 45°33' W 122°42'0 0.0
2018-May-29 18:30N 45°33' W 122°42'0 0.0
2018-May-29 18:01N 45°33' W 122°42'0 0.0
2018-May-29 17:30N 45°33' W 122°42'0 0.0
2018-May-29 17:01N 45°33' W 122°42'0 0.0
2018-May-29 16:31N 45°33' W 122°42'0 0.0
2018-May-29 16:00N 45°33' W 122°42'0 0.0
2018-May-29 15:30N 45°33' W 122°42'0 0.0
2018-May-29 15:00N 45°33' W 122°42'0 0.0
2018-May-29 14:30N 45°33' W 122°42'0 0.0
2018-May-29 14:00N 45°33' W 122°42'0 0.0
2018-May-29 13:31N 45°33' W 122°42'0 0.0
2018-May-29 13:00N 45°33' W 122°42'0 0.0
2018-May-29 12:30N 45°33' W 122°42'0 0.0
2018-May-29 12:00N 45°33' W 122°42'0 0.0
2018-May-29 11:30N 45°33' W 122°42'0 0.0
2018-May-29 11:00N 45°33' W 122°42'0 0.0
2018-May-29 10:30N 45°33' W 122°42'0 0.0
2018-May-29 10:00N 45°33' W 122°42'0 0.0
2018-May-29 09:31N 45°33' W 122°42'0 0.0
2018-May-29 09:00N 45°33' W 122°42'0 0.0
2018-May-29 08:30N 45°33' W 122°42'  

Dump ship's entire track history